Time;durP1;ratioP1;P1;durP2;ratioP2;P2;SDS_P1;SDS_P2;PMS_P1;PMS_P2;Temp;Humidity;BMP_temperature;BMP_pressure;BME280_temperature;BME280_humidity;BME280_pressure;Samples;Min_cycle;Max_cycle;Signal;HPM_P1;HPM_P2
2020/12/01 00:01:17;;;;;;;67.93;26.10;;;;;;;6.34;100.00;101404.63;5049911;28;20029;-68
2020/12/01 00:03:43;;;;;;;62.03;22.90;;;;;;;6.27;100.00;101415.88;5050283;28;20052;-68
2020/12/01 00:06:09;;;;;;;69.10;23.45;;;;;;;6.24;100.00;101419.66;5049263;28;20068;-69
2020/12/01 00:08:37;;;;;;;63.47;23.65;;;;;;;6.33;100.00;101416.25;5049424;28;20082;-68
2020/12/01 00:11:05;;;;;;;69.05;24.38;;;;;;;6.29;100.00;101421.94;5048721;28;20068;-68
2020/12/01 00:13:31;;;;;;;70.10;22.55;;;;;;;6.42;100.00;101428.81;5049844;28;20405;-68
2020/12/01 00:15:56;;;;;;;70.75;24.55;;;;;;;6.36;100.00;101433.78;5050067;28;20037;-68
2020/12/01 00:18:22;;;;;;;58.30;21.77;;;;;;;6.43;100.00;101433.19;5049233;28;20025;-69
2020/12/01 00:20:48;;;;;;;56.97;20.73;;;;;;;6.55;100.00;101435.81;5049348;28;20036;-68
2020/12/01 00:23:13;;;;;;;43.40;15.93;;;;;;;6.66;100.00;101427.78;5049755;28;20110;-69
2020/12/01 00:25:39;;;;;;;43.30;14.40;;;;;;;6.62;100.00;101437.84;5049878;28;20033;-68
2020/12/01 00:28:04;;;;;;;38.70;13.57;;;;;;;6.68;100.00;101436.50;5048813;28;20068;-68
2020/12/01 00:30:30;;;;;;;21.55;7.53;;;;;;;6.78;100.00;101423.22;5049946;28;20037;-68
2020/12/01 00:32:56;;;;;;;24.23;6.57;;;;;;;6.79;100.00;101423.13;5049465;28;20503;-67
2020/12/01 00:35:27;;;;;;;23.40;7.07;;;;;;;6.79;100.00;101427.63;5049673;28;20033;-67
2020/12/01 00:37:53;;;;;;;17.65;5.35;;;;;;;6.70;100.00;101426.53;5048850;28;20025;-68
2020/12/01 00:40:20;;;;;;;18.92;5.93;;;;;;;6.67;100.00;101430.31;5049671;28;20036;-68
2020/12/01 00:42:45;;;;;;;20.63;6.65;;;;;;;6.63;100.00;101434.22;5049267;28;20033;-68
2020/12/01 00:45:11;;;;;;;23.20;4.85;;;;;;;6.62;100.00;101432.50;5049280;28;20039;-68
2020/12/01 00:47:37;;;;;;;18.45;6.35;;;;;;;6.68;100.00;101436.50;5046952;28;20036;-68
2020/12/01 00:50:14;;;;;;;26.30;7.18;;;;;;;6.60;100.00;101439.78;5048892;28;20036;-69
2020/12/01 00:52:39;;;;;;;29.83;5.80;;;;;;;6.65;100.00;101434.09;5049040;28;20493;-69
2020/12/01 00:55:06;;;;;;;23.50;7.05;;;;;;;6.62;100.00;101423.66;5048832;28;20138;-69
2020/12/01 00:57:31;;;;;;;28.52;6.72;;;;;;;6.60;100.00;101429.13;5046421;28;20119;-69
2020/12/01 00:59:57;;;;;;;25.48;5.68;;;;;;;6.63;100.00;101439.56;5049282;28;20048;-69
2020/12/01 01:02:22;;;;;;;21.73;5.68;;;;;;;6.62;100.00;101435.16;5048223;28;20021;-69
2020/12/01 01:04:48;;;;;;;30.92;4.43;;;;;;;6.69;100.00;101428.38;5049179;28;20501;-69
2020/12/01 01:07:14;;;;;;;33.00;4.65;;;;;;;6.86;100.00;101429.63;5047724;28;20029;-68
2020/12/01 01:09:39;;;;;;;27.95;4.68;;;;;;;6.92;100.00;101436.28;5049232;28;20063;-68
2020/12/01 01:12:05;;;;;;;14.88;2.53;;;;;;;7.02;100.00;101423.84;5048279;28;20037;-68
2020/12/01 01:14:30;;;;;;;18.90;2.03;;;;;;;7.09;100.00;101434.88;5049365;28;20039;-69
2020/12/01 01:16:56;;;;;;;16.83;2.50;;;;;;;6.99;100.00;101448.97;5047359;28;20040;-68
2020/12/01 01:19:21;;;;;;;15.30;2.33;;;;;;;6.89;100.00;101441.88;5048987;28;20017;-68
2020/12/01 01:21:47;;;;;;;10.27;1.40;;;;;;;6.85;100.00;101443.09;5048552;28;20025;-68
2020/12/01 01:24:15;;;;;;;15.98;1.58;;;;;;;6.78;100.00;101456.09;5048963;28;20385;-68
2020/12/01 01:26:47;;;;;;;12.40;1.63;;;;;;;6.67;100.00;101451.63;5043538;28;20091;-68
2020/12/01 01:29:12;;;;;;;12.43;1.88;;;;;;;6.57;100.00;101461.34;5040844;28;20079;-68
2020/12/01 01:31:38;;;;;;;10.38;1.55;;;;;;;6.56;100.00;101469.50;5047898;28;20032;-68
2020/12/01 01:34:03;;;;;;;5.78;0.95;;;;;;;6.52;100.00;101462.72;5048345;28;20094;-67
2020/12/01 01:36:35;;;;;;;14.50;2.08;;;;;;;6.47;100.00;101471.06;5047613;28;20108;-68
2020/12/01 01:39:04;;;;;;;8.60;1.75;;;;;;;6.36;100.00;101465.78;5048548;28;20021;-68
2020/12/01 01:41:31;;;;;;;10.52;1.40;;;;;;;6.32;100.00;101472.31;5048015;28;20405;-68
2020/12/01 01:43:56;;;;;;;15.80;1.90;;;;;;;6.33;100.00;101471.38;5046971;28;20032;-68
2020/12/01 01:46:46;;;;;;;6.53;1.30;;;;;;;6.22;100.00;101466.88;5046821;28;20033;-69
2020/12/01 01:49:18;;;;;;;7.25;1.30;;;;;;;6.17;100.00;101469.06;5047921;28;20031;-68
2020/12/01 01:51:54;;;;;;;8.73;1.38;;;;;;;6.07;100.00;101468.94;5048093;28;20155;-68
2020/12/01 01:54:21;;;;;;;16.13;1.73;;;;;;;6.01;100.00;101463.25;5048040;28;20029;-68
2020/12/01 01:56:52;;;;;;;18.23;2.20;;;;;;;6.10;100.00;101467.88;5043312;28;20033;-68
2020/12/01 01:59:18;;;;;;;11.98;2.15;;;;;;;6.03;100.00;101456.03;5047350;28;20032;-68
2020/12/01 02:01:45;;;;;;;15.00;1.92;;;;;;;5.96;100.00;101458.31;5048027;28;20410;-67
2020/12/01 02:04:12;;;;;;;8.10;1.40;;;;;;;5.84;100.00;101467.25;5048340;28;20396;-68
2020/12/01 02:06:39;;;;;;;7.65;1.60;;;;;;;5.85;100.00;101463.59;5047760;28;20370;-68
2020/12/01 02:09:16;;;;;;;20.35;2.67;;;;;;;5.75;100.00;101467.97;5034585;28;20029;-69
2020/12/01 02:11:44;;;;;;;17.27;2.10;;;;;;;5.72;100.00;101471.69;5047927;28;20035;-69
2020/12/01 02:14:23;;;;;;;16.67;1.90;;;;;;;5.69;100.00;101472.78;5048519;28;20489;-68
2020/12/01 02:16:54;;;;;;;15.88;2.42;;;;;;;5.70;100.00;101457.66;5047213;28;20040;-68
2020/12/01 02:19:23;;;;;;;13.77;2.10;;;;;;;5.66;100.00;101449.06;5048516;28;20501;-67
2020/12/01 02:22:01;;;;;;;14.00;2.30;;;;;;;5.61;100.00;101467.19;5047881;28;20032;-68
2020/12/01 02:24:40;;;;;;;14.35;2.38;;;;;;;5.67;100.00;101466.75;5048141;28;20071;-68
2020/12/01 02:27:05;;;;;;;10.65;1.77;;;;;;;5.66;100.00;101465.03;5046381;28;20025;-68
2020/12/01 02:29:35;;;;;;;15.73;2.28;;;;;;;5.53;100.00;101455.47;5048251;28;20028;-68
2020/12/01 02:32:01;;;;;;;14.93;2.45;;;;;;;5.45;100.00;101453.41;5047834;28;20067;-68
2020/12/01 02:34:32;;;;;;;16.02;3.20;;;;;;;5.39;100.00;101456.53;5047652;28;20032;-67
2020/12/01 02:36:59;;;;;;;9.93;1.90;;;;;;;5.44;100.00;101459.69;5046468;28;20025;-68
2020/12/01 02:39:27;;;;;;;19.02;2.45;;;;;;;5.35;100.00;101461.22;5047953;28;20033;-68
2020/12/01 02:41:58;;;;;;;14.43;3.35;;;;;;;5.28;100.00;101460.03;5046797;28;20099;-69
2020/12/01 02:44:25;;;;;;;24.17;3.00;;;;;;;5.23;100.00;101456.03;5047267;28;20405;-69
2020/12/01 02:47:07;;;;;;;16.73;4.28;;;;;;;5.21;100.00;101458.78;5047288;28;20040;-69
2020/12/01 02:49:34;;;;;;;20.33;2.78;;;;;;;5.19;100.00;101450.06;5047757;28;20036;-69
2020/12/01 02:52:01;;;;;;;16.70;2.25;;;;;;;5.20;100.00;101451.75;5047856;28;20706;-68
2020/12/01 02:54:27;;;;;;;18.50;2.63;;;;;;;5.18;100.00;101449.22;5047780;28;20033;-69
2020/12/01 02:56:53;;;;;;;27.10;2.78;;;;;;;5.24;100.00;101445.25;5044571;28;20029;-69
2020/12/01 02:59:20;;;;;;;25.90;3.53;;;;;;;5.22;100.00;101444.53;5047200;28;20071;-69
2020/12/01 03:01:47;;;;;;;21.20;3.28;;;;;;;5.28;100.00;101443.22;5048047;28;20037;-69
2020/12/01 03:04:13;;;;;;;23.23;2.70;;;;;;;5.29;100.00;101443.09;5047333;28;20040;-68
2020/12/01 03:06:39;;;;;;;22.95;2.92;;;;;;;5.27;100.00;101438.84;5047479;28;20036;-69
2020/12/01 03:09:11;;;;;;;26.02;3.15;;;;;;;5.28;100.00;101441.41;5047210;28;20036;-69
2020/12/01 03:11:36;;;;;;;24.23;3.15;;;;;;;5.23;100.00;101435.59;5050381;28;20107;-69
2020/12/01 03:14:03;;;;;;;20.98;2.65;;;;;;;5.27;100.00;101442.38;5051838;28;20136;-68
2020/12/01 03:16:28;;;;;;;37.95;6.75;;;;;;;5.36;100.00;101449.63;5050992;28;20036;-69
2020/12/01 03:18:54;;;;;;;20.55;3.35;;;;;;;5.42;100.00;101453.63;5051720;28;20029;-69
2020/12/01 03:21:20;;;;;;;24.98;3.83;;;;;;;5.40;100.00;101443.09;5050380;28;20037;-68
2020/12/01 03:23:45;;;;;;;21.65;3.15;;;;;;;5.38;100.00;101434.41;5036250;28;20051;-69
2020/12/01 03:26:13;;;;;;;26.73;2.90;;;;;;;5.29;100.00;101435.09;5047828;28;20441;-68
2020/12/01 03:28:39;;;;;;;31.20;5.47;;;;;;;5.25;100.00;101425.66;5051254;28;20099;-68
2020/12/01 03:31:05;;;;;;;20.77;2.92;;;;;;;5.19;100.00;101424.31;5051054;28;20033;-68
2020/12/01 03:33:31;;;;;;;24.00;3.45;;;;;;;5.20;100.00;101428.66;5050840;28;20036;-68
2020/12/01 03:35:56;;;;;;;26.17;3.10;;;;;;;5.16;100.00;101424.53;5051289;28;20052;-68
2020/12/01 03:38:22;;;;;;;24.88;3.70;;;;;;;5.20;100.00;101425.16;5049295;28;20045;-68
2020/12/01 03:40:48;;;;;;;21.35;3.35;;;;;;;5.27;100.00;101430.84;5050711;28;20400;-68
2020/12/01 03:43:14;;;;;;;20.20;2.95;;;;;;;5.26;100.00;101430.00;5050789;28;20029;-68
2020/12/01 03:45:39;;;;;;;25.85;2.88;;;;;;;5.42;100.00;101422.56;5050714;28;20033;-69
2020/12/01 03:48:05;;;;;;;32.50;3.42;;;;;;;5.55;100.00;101419.78;5050188;28;20029;-68
2020/12/01 03:50:31;;;;;;;24.08;2.75;;;;;;;5.57;100.00;101423.19;5050825;28;20116;-68
2020/12/01 03:52:57;;;;;;;28.50;3.65;;;;;;;5.77;100.00;101421.59;5050703;28;20064;-68
2020/12/01 03:55:25;;;;;;;19.52;2.47;;;;;;;5.70;100.00;101425.72;5047622;28;20033;-68
2020/12/01 03:57:51;;;;;;;32.58;3.00;;;;;;;5.67;100.00;101424.16;5050002;28;20086;-68
2020/12/01 04:00:21;;;;;;;17.45;2.03;;;;;;;5.74;100.00;101416.53;5050585;28;20045;-68
2020/12/01 04:02:47;;;;;;;24.40;2.22;;;;;;;5.77;100.00;101418.94;5050621;28;20439;-68
2020/12/01 04:05:15;;;;;;;15.20;2.05;;;;;;;5.82;100.00;101423.88;5049385;28;20485;-68
2020/12/01 04:07:41;;;;;;;22.55;3.05;;;;;;;5.81;100.00;101425.72;5049973;28;20028;-67
2020/12/01 04:10:09;;;;;;;18.45;2.45;;;;;;;5.84;100.00;101430.81;5050127;28;20567;-68
2020/12/01 04:12:35;;;;;;;26.98;2.60;;;;;;;5.79;100.00;101427.66;5050701;28;20025;-67
2020/12/01 04:15:01;;;;;;;10.80;2.10;;;;;;;5.80;100.00;101421.34;5049942;28;20044;-67
2020/12/01 04:17:27;;;;;;;12.70;2.22;;;;;;;5.77;100.00;101423.41;5050194;28;20079;-68
2020/12/01 04:19:52;;;;;;;22.48;2.35;;;;;;;5.75;100.00;101425.34;5050416;28;20393;-68
2020/12/01 04:22:18;;;;;;;29.50;3.20;;;;;;;5.77;100.00;101424.25;5049685;28;20032;-68
2020/12/01 04:24:44;;;;;;;18.70;2.63;;;;;;;5.78;100.00;101422.47;5048663;28;20064;-68
2020/12/01 04:27:11;;;;;;;20.90;3.30;;;;;;;5.84;100.00;101428.16;5048485;28;20033;-68
2020/12/01 04:29:37;;;;;;;29.48;3.22;;;;;;;5.78;100.00;101422.47;5050243;28;20025;-68
2020/12/01 04:32:04;;;;;;;15.98;2.33;;;;;;;5.72;100.00;101427.31;5050247;28;20029;-68
2020/12/01 04:34:30;;;;;;;18.50;2.70;;;;;;;5.75;100.00;101423.53;5048763;28;20053;-69
2020/12/01 04:36:56;;;;;;;24.80;2.15;;;;;;;5.73;100.00;101417.50;5049273;28;20039;-69
2020/12/01 04:39:22;;;;;;;16.70;2.13;;;;;;;5.76;100.00;101424.38;5049869;28;20033;-69
2020/12/01 04:41:48;;;;;;;15.95;2.42;;;;;;;5.74;100.00;101427.19;5050114;28;20029;-68
2020/12/01 04:44:26;;;;;;;23.45;2.65;;;;;;;5.74;100.00;101416.53;5042801;28;20115;-68
2020/12/01 04:46:53;;;;;;;65.50;23.48;;;;;;;5.78;100.00;101417.13;5049219;28;20468;-68
2020/12/01 04:49:28;;;;;;;77.88;30.13;;;;;;;5.76;100.00;101422.56;5048265;28;20033;-68
2020/12/01 04:52:08;;;;;;;26.60;6.65;;;;;;;5.69;100.00;101421.38;5049937;28;20048;-68
2020/12/01 04:55:00;;;;;;;28.40;9.23;;;;;;;5.68;100.00;101419.69;5048506;28;20042;-68
2020/12/01 04:57:40;;;;;;;21.40;5.68;;;;;;;5.71;100.00;101419.41;5045552;28;20037;-68
2020/12/01 05:00:10;;;;;;;22.75;4.50;;;;;;;5.70;100.00;101415.06;5049430;28;20037;-68
2020/12/01 05:02:56;;;;;;;32.88;12.07;;;;;;;5.81;100.00;101416.88;5049113;28;20519;-68
2020/12/01 05:05:33;;;;;;;40.83;14.40;;;;;;;5.79;100.00;101418.81;5049472;28;20032;-68
2020/12/01 05:08:27;;;;;;;30.08;10.45;;;;;;;5.76;100.00;101411.06;5049045;28;20056;-68
2020/12/01 05:10:56;;;;;;;20.80;7.20;;;;;;;5.76;100.00;101411.91;5049086;28;20064;-68
2020/12/01 05:13:30;;;;;;;21.40;6.18;;;;;;;5.79;100.00;101409.03;5049173;28;20021;-68
2020/12/01 05:16:05;;;;;;;48.35;16.77;;;;;;;5.81;100.00;101412.41;5047848;28;20029;-69
2020/12/01 05:18:32;;;;;;;25.27;8.90;;;;;;;5.84;100.00;101413.97;5048784;28;20052;-68
2020/12/01 05:21:01;;;;;;;26.30;10.60;;;;;;;5.99;100.00;101414.63;5049057;28;20051;-68
2020/12/01 05:23:36;;;;;;;20.40;6.32;;;;;;;5.92;100.00;101420.44;5049266;28;20040;-68
2020/12/01 05:26:05;;;;;;;28.73;10.00;;;;;;;6.02;100.00;101411.69;5049178;28;20029;-68
2020/12/01 05:28:42;;;;;;;26.17;6.28;;;;;;;6.05;100.00;101416.78;5048132;28;20028;-68
2020/12/01 05:31:08;;;;;;;15.25;4.72;;;;;;;6.03;100.00;101408.91;5048336;28;20033;-67
2020/12/01 05:33:33;;;;;;;25.98;10.27;;;;;;;5.97;100.00;101417.38;5048348;28;20090;-67
2020/12/01 05:36:15;;;;;;;30.92;6.63;;;;;;;5.94;100.00;101413.16;5048707;28;20032;-67
2020/12/01 05:38:42;;;;;;;27.30;7.20;;;;;;;5.94;100.00;101413.16;5049161;28;20028;-67
2020/12/01 05:41:22;;;;;;;36.15;10.70;;;;;;;5.92;100.00;101417.78;5048384;28;20049;-66
2020/12/01 05:43:54;;;;;;;35.70;14.18;;;;;;;5.92;100.00;101422.22;5048183;28;20025;-67
2020/12/01 05:46:33;;;;;;;32.85;13.77;;;;;;;5.91;100.00;101417.84;5047934;28;20491;-67
2020/12/01 05:49:03;;;;;;;28.38;11.60;;;;;;;6.02;100.00;101417.84;5048852;28;20087;-68
2020/12/01 05:51:44;;;;;;;30.35;7.15;;;;;;;6.07;100.00;101414.81;5048505;28;20036;-67
2020/12/01 05:54:32;;;;;;;26.63;7.90;;;;;;;6.16;100.00;101417.59;5048531;28;20657;-67
2020/12/01 05:56:58;;;;;;;22.30;6.53;;;;;;;6.25;100.00;101407.19;5044636;28;20028;-67
2020/12/01 05:59:24;;;;;;;27.13;5.10;;;;;;;6.36;100.00;101410.66;5048582;28;20021;-67
2020/12/01 06:01:57;;;;;;;20.27;4.35;;;;;;;6.46;100.00;101422.25;5048180;28;20497;-67
2020/12/01 06:04:25;;;;;;;14.30;3.95;;;;;;;6.66;100.00;101417.09;5047634;28;20037;-67
2020/12/01 06:07:10;;;;;;;16.65;3.40;;;;;;;6.70;100.00;101418.56;5047898;28;20517;-67
2020/12/01 06:09:52;;;;;;;19.20;4.83;;;;;;;6.73;100.00;101413.81;5048831;28;20037;-67
2020/12/01 06:12:27;;;;;;;16.27;4.32;;;;;;;6.72;100.00;101422.75;5047462;28;20044;-67
2020/12/01 06:15:01;;;;;;;;;;;;;;;6.70;100.00;101411.41;5049143;28;20149;-68
2020/12/01 06:17:41;;;;;;;20.42;6.07;;;;;;;6.78;100.00;101409.91;5036025;28;19912;-68
2020/12/01 06:20:15;;;;;;;46.70;28.70;;;;;;;6.79;100.00;101403.63;5049327;28;20075;-68
2020/12/01 06:22:56;;;;;;;21.77;5.07;;;;;;;6.78;100.00;101410.78;5048764;28;20441;-68
2020/12/01 06:25:32;;;;;;;19.15;4.85;;;;;;;6.83;100.00;101411.22;5049025;28;20071;-68
2020/12/01 06:28:23;;;;;;;16.15;4.65;;;;;;;6.90;100.00;101407.06;5048412;28;20040;-67
2020/12/01 06:31:01;;;;;;;17.30;4.88;;;;;;;6.93;100.00;101408.66;5048919;28;20584;-68
2020/12/01 06:33:52;;;;;;;10.32;3.13;;;;;;;6.99;100.00;101405.44;5039367;28;20087;-68
2020/12/01 06:36:43;;;;;;;20.20;2.97;;;;;;;7.01;100.00;101409.66;5048619;28;20028;-68
2020/12/01 06:39:16;;;;;;;16.77;3.30;;;;;;;7.05;100.00;101422.75;5048938;28;20032;-68
2020/12/01 06:41:47;;;;;;;18.70;3.13;;;;;;;7.14;100.00;101413.97;5048659;28;20052;-68
2020/12/01 06:44:19;;;;;;;16.33;2.90;;;;;;;7.16;100.00;101404.84;5049301;28;20401;-68
2020/12/01 06:46:48;;;;;;;21.98;3.42;;;;;;;7.17;100.00;101411.88;5050986;28;20029;-68
2020/12/01 06:49:20;;;;;;;14.30;3.05;;;;;;;7.20;100.00;101416.97;5051709;28;20059;-68
2020/12/01 06:51:49;;;;;;;22.88;3.70;;;;;;;7.13;100.00;101429.16;5053003;28;20126;-68
2020/12/01 06:54:16;;;;;;;15.90;3.83;;;;;;;7.14;100.00;101422.00;5052696;28;20029;-68
2020/12/01 06:57:02;;;;;;;19.08;3.55;;;;;;;7.19;100.00;101425.97;5049429;28;20029;-68
2020/12/01 06:59:27;;;;;;;;;;;;;;;7.26;100.00;101434.28;5053219;28;20025;-68
2020/12/01 07:02:05;;;;;;;22.38;3.00;;;;;;;7.29;100.00;101436.69;5050845;28;19966;-68
2020/12/01 07:04:31;;;;;;;15.00;2.55;;;;;;;7.33;100.00;101437.25;5052381;28;20052;-68
2020/12/01 07:07:00;;;;;;;22.45;3.20;;;;;;;7.27;100.00;101428.78;5049887;28;20037;-68
2020/12/01 07:09:40;;;;;;;15.85;3.10;;;;;;;7.25;100.00;101443.25;5052074;28;20035;-69
2020/12/01 07:12:07;;;;;;;19.88;4.65;;;;;;;7.25;100.00;101454.78;5051245;28;20219;-69
2020/12/01 07:14:40;;;;;;;22.92;3.50;;;;;;;7.21;100.00;101442.66;5052527;28;20025;-69
2020/12/01 07:17:23;;;;;;;25.17;3.85;;;;;;;7.27;100.00;101458.16;5051726;28;20033;-68
2020/12/01 07:20:16;;;;;;;20.05;3.67;;;;;;;7.31;100.00;101461.41;5052570;28;20166;-68
2020/12/01 07:22:51;;;;;;;20.67;4.25;;;;;;;7.31;100.00;101460.56;5052224;28;20033;-69
2020/12/01 07:25:30;;;;;;;25.75;3.28;;;;;;;7.33;100.00;101462.16;5052260;28;20061;-69
2020/12/01 07:28:14;;;;;;;20.30;3.30;;;;;;;7.41;100.00;101475.69;5037712;28;20222;-68
2020/12/01 07:30:59;;;;;;;27.40;4.82;;;;;;;7.33;100.00;101463.94;5052556;28;20032;-68
2020/12/01 07:33:30;;;;;;;18.98;4.43;;;;;;;7.32;100.00;101487.13;5054026;28;20073;-69
2020/12/01 07:36:12;;;;;;;24.08;3.95;;;;;;;7.36;100.00;101480.56;5052110;28;20037;-68
2020/12/01 07:38:43;;;;;;;17.30;3.40;;;;;;;7.33;100.00;101493.31;5051919;28;20032;-68
2020/12/01 07:41:14;;;;;;;23.48;3.33;;;;;;;7.25;100.00;101484.13;5051529;28;20400;-68
2020/12/01 07:43:40;;;;;;;20.33;2.72;;;;;;;7.23;100.00;101491.44;5051795;28;20025;-69
2020/12/01 07:46:06;;;;;;;18.48;4.30;;;;;;;7.27;100.00;101514.22;5051851;28;20039;-69
2020/12/01 07:48:32;;;;;;;20.70;3.22;;;;;;;7.24;100.00;101510.97;5050644;28;20051;-68
2020/12/01 07:51:17;;;;;;;26.63;3.45;;;;;;;7.23;100.00;101510.13;5051451;28;20063;-69
2020/12/01 07:53:42;;;;;;;29.88;5.50;;;;;;;7.20;100.00;101523.72;5050998;28;20063;-69
2020/12/01 07:56:13;;;;;;;23.30;4.88;;;;;;;7.22;100.00;101504.91;5048095;28;20473;-68
2020/12/01 07:58:38;;;;;;;21.23;3.85;;;;;;;7.26;100.00;101519.69;5051093;28;20070;-68
2020/12/01 08:01:15;;;;;;;24.85;3.88;;;;;;;7.24;100.00;101503.81;5051262;28;20125;-67
2020/12/01 08:03:41;;;;;;;16.75;3.63;;;;;;;7.23;100.00;101525.28;5050905;28;20120;-67
2020/12/01 08:06:15;;;;;;;21.10;3.50;;;;;;;7.24;100.00;101533.16;5042856;28;20581;-67
2020/12/01 08:08:44;;;;;;;26.15;3.17;;;;;;;7.25;100.00;101532.19;5049021;28;20029;-67
2020/12/01 08:11:14;;;;;;;30.63;5.18;;;;;;;7.20;100.00;101539.72;5049814;28;20060;-67
2020/12/01 08:13:41;;;;;;;30.30;4.82;;;;;;;7.21;100.00;101540.56;5048029;28;20505;-68
2020/12/01 08:16:15;;;;;;;20.27;3.28;;;;;;;7.27;100.00;101545.38;5050268;28;20124;-69
2020/12/01 08:18:42;;;;;;;24.63;3.67;;;;;;;7.28;100.00;101557.78;5050218;28;20113;-67
2020/12/01 08:21:08;;;;;;;24.23;3.35;;;;;;;7.27;100.00;101556.91;5049280;28;20037;-67
2020/12/01 08:23:35;;;;;;;20.08;3.92;;;;;;;7.23;100.00;101555.50;5049872;28;20060;-68
2020/12/01 08:26:09;;;;;;;20.48;4.13;;;;;;;7.26;100.00;101555.22;5049935;28;20043;-67
2020/12/01 08:28:43;;;;;;;25.48;4.65;;;;;;;7.21;100.00;101562.75;5036193;28;20501;-67
2020/12/01 08:31:26;;;;;;;25.02;4.82;;;;;;;7.25;100.00;101568.69;5049570;28;20044;-67
2020/12/01 08:34:05;;;;;;;25.38;4.82;;;;;;;7.21;100.00;101568.09;5050514;28;20039;-67
2020/12/01 08:36:47;;;;;;;27.30;4.70;;;;;;;7.16;100.00;101574.78;5048698;28;20033;-69
2020/12/01 08:39:35;;;;;;;38.85;5.20;;;;;;;7.19;100.00;101575.41;5049324;28;20037;-68
2020/12/01 08:42:11;;;;;;;20.67;4.40;;;;;;;7.22;100.00;101582.28;5039022;28;20025;-67
2020/12/01 08:44:42;;;;;;;33.50;4.88;;;;;;;7.14;100.00;101577.59;5042613;28;20418;-68
2020/12/01 08:47:07;;;;;;;20.98;4.43;;;;;;;7.11;100.00;101579.66;5049016;28;20059;-68
2020/12/01 08:49:44;;;;;;;31.48;5.03;;;;;;;7.04;100.00;101589.16;5049485;28;20397;-68
2020/12/01 08:52:28;;;;;;;30.55;4.43;;;;;;;7.05;100.00;101589.03;5049095;28;20072;-68
2020/12/01 08:54:58;;;;;;;26.63;3.55;;;;;;;7.17;100.00;101592.50;5049533;28;20111;-68
2020/12/01 08:57:33;;;;;;;39.03;4.97;;;;;;;7.12;100.00;101595.53;5046514;28;20521;-69
2020/12/01 09:00:14;;;;;;;33.92;4.20;;;;;;;7.09;100.00;101587.81;5048471;28;20029;-68
2020/12/01 09:02:43;;;;;;;30.85;4.18;;;;;;;7.06;100.00;101603.19;5036671;28;20021;-68
2020/12/01 09:05:21;;;;;;;32.47;3.42;;;;;;;7.05;100.00;101609.53;5049167;28;20024;-69
2020/12/01 09:07:50;;;;;;;26.88;3.85;;;;;;;7.00;100.00;101610.72;5047845;28;20033;-70
2020/12/01 09:10:24;;;;;;;27.60;4.38;;;;;;;7.08;100.00;101618.13;5047980;28;20068;-68
2020/12/01 09:13:30;;;;;;;35.67;4.78;;;;;;;7.10;100.00;101623.34;5048860;28;20036;-69
2020/12/01 09:16:17;;;;;;;38.95;5.10;;;;;;;7.08;100.00;101625.25;5039002;28;20086;-69
2020/12/01 09:19:06;;;;;;;31.30;4.38;;;;;;;7.09;100.00;101633.16;5048065;28;20461;-70
2020/12/01 09:24:24;;;;;;;22.27;4.35;;;;;;;7.14;100.00;101638.97;5048905;28;20052;-69
2020/12/01 09:27:07;;;;;;;31.85;3.90;;;;;;;7.17;100.00;101636.03;5042686;28;20112;-69
2020/12/01 09:29:34;;;;;;;30.08;4.80;;;;;;;7.13;100.00;101644.41;5043720;28;20029;-69
2020/12/01 09:32:00;;;;;;;36.28;5.10;;;;;;;7.14;100.00;101646.13;5048777;28;20029;-69
2020/12/01 09:34:30;;;;;;;38.17;5.28;;;;;;;7.17;100.00;101653.88;5050216;28;20043;-69
2020/12/01 09:36:58;;;;;;;36.15;5.45;;;;;;;7.20;100.00;101653.63;5047207;28;20071;-69
2020/12/01 09:39:24;;;;;;;26.63;4.38;;;;;;;7.23;100.00;101656.91;5048731;28;20028;-69
2020/12/01 09:42:00;;;;;;;22.35;4.05;;;;;;;7.25;100.00;101667.44;5052183;28;20037;-71
2020/12/01 09:47:07;;;;;;;35.08;5.70;;;;;;;7.19;100.00;101671.47;5048029;28;20449;-69
2020/12/01 09:49:33;;;;;;;23.60;3.47;;;;;;;7.36;100.00;101674.59;5046315;28;20029;-69
2020/12/01 09:52:06;;;;;;;33.20;4.30;;;;;;;7.31;100.00;101679.44;5048142;28;20090;-69
2020/12/01 09:54:39;;;;;;;33.67;3.90;;;;;;;7.28;100.00;101685.91;5047974;28;20115;-68
2020/12/01 09:57:12;;;;;;;40.65;4.95;;;;;;;7.32;100.00;101681.13;5047324;28;20025;-69
2020/12/01 10:03:43;;;;;;;34.47;4.60;;;;;;;7.42;100.00;101687.41;5046863;28;20038;-68
2020/12/01 10:06:20;;;;;;;33.00;5.32;;;;;;;7.45;100.00;101687.19;5047044;28;20047;-69
2020/12/01 10:10:59;;;;;;;37.90;4.82;;;;;;;7.55;100.00;101688.13;5047104;28;20072;-69
2020/12/01 10:16:36;;;;;;;31.02;3.58;;;;;;;7.59;100.00;101702.09;5047209;28;20056;-69
2020/12/01 10:22:13;;;;;;;31.45;4.95;;;;;;;7.60;100.00;101701.94;5046218;28;20029;-68
2020/12/01 10:27:24;;;;;;;30.20;3.58;;;;;;;7.56;100.00;101700.50;5039531;28;20397;-69
2020/12/01 10:32:26;;;;;;;23.08;3.85;;;;;;;7.67;100.00;101699.59;5047108;28;20465;-67
2020/12/01 10:34:58;;;;;;;25.75;4.32;;;;;;;7.54;100.00;101707.78;5047294;28;20029;-68
2020/12/01 10:37:23;;;;;;;29.80;4.63;;;;;;;7.63;100.00;101704.38;5025153;28;20041;-68
2020/12/01 10:39:49;;;;;;;29.08;4.38;;;;;;;7.64;100.00;101711.41;5046809;28;20384;-67
2020/12/01 10:42:15;;;;;;;34.97;4.30;;;;;;;7.67;100.00;101713.81;5048006;28;20412;-68
2020/12/01 10:44:41;;;;;;;25.10;4.47;;;;;;;7.81;100.00;101712.69;5041326;28;20056;-68
2020/12/01 10:47:08;;;;;;;18.95;3.70;;;;;;;7.78;100.00;101704.91;5046555;28;20465;-67
2020/12/01 10:49:34;;;;;;;31.25;4.50;;;;;;;7.84;100.00;101704.41;5047326;28;20120;-68
2020/12/01 10:51:59;;;;;;;33.17;5.47;;;;;;;7.72;100.00;101700.91;5046713;28;20053;-68
2020/12/01 10:54:25;;;;;;;38.22;5.22;;;;;;;7.78;100.00;101696.88;5046395;28;20067;-68
2020/12/01 10:56:52;;;;;;;25.88;3.50;;;;;;;7.77;100.00;101706.72;5044843;28;20033;-67
2020/12/01 10:59:20;;;;;;;26.67;4.47;;;;;;;7.77;100.00;101708.56;5047025;28;20033;-68
2020/12/01 11:01:46;;;;;;;31.23;3.40;;;;;;;7.92;100.00;101709.94;5046827;28;20025;-68
2020/12/01 11:04:12;;;;;;;24.67;4.28;;;;;;;7.86;100.00;101709.63;5046511;28;20118;-67
2020/12/01 11:06:38;;;;;;;19.38;3.75;;;;;;;7.89;100.00;101702.22;5046190;28;20033;-67
2020/12/01 11:09:05;;;;;;;28.05;4.15;;;;;;;7.85;100.00;101710.59;5046881;28;20436;-67
2020/12/01 11:11:30;;;;;;;18.40;4.43;;;;;;;7.98;100.00;101696.09;5046732;28;20056;-67
2020/12/01 11:13:56;;;;;;;27.10;3.22;;;;;;;8.05;100.00;101705.28;5046114;28;20434;-67
2020/12/01 11:16:21;;;;;;;29.15;4.20;;;;;;;8.03;100.00;101699.22;5047023;28;20025;-67
2020/12/01 11:18:47;;;;;;;21.45;3.88;;;;;;;8.16;100.00;101706.22;5047399;28;20028;-69
2020/12/01 11:21:12;;;;;;;25.40;3.33;;;;;;;8.15;100.00;101710.72;5046786;28;20029;-68
2020/12/01 11:23:38;;;;;;;27.75;3.60;;;;;;;8.20;100.00;101716.50;5046182;28;20052;-68
2020/12/01 11:26:03;;;;;;;20.63;3.75;;;;;;;8.26;100.00;101717.81;5046859;28;20033;-67
2020/12/01 11:28:29;;;;;;;28.73;3.92;;;;;;;8.37;100.00;101724.94;5046247;28;20179;-67
2020/12/01 11:30:55;;;;;;;30.33;4.63;;;;;;;8.40;100.00;101725.53;5048058;28;20463;-67
2020/12/01 11:33:20;;;;;;;25.92;4.28;;;;;;;8.57;100.00;101724.09;5050904;28;20086;-67
2020/12/01 11:35:46;;;;;;;30.50;4.25;;;;;;;8.52;100.00;101723.63;5050426;28;20056;-67
2020/12/01 11:38:11;;;;;;;28.23;3.97;;;;;;;8.64;100.00;101729.78;5044737;28;20028;-67
2020/12/01 11:40:37;;;;;;;20.08;3.40;;;;;;;8.60;100.00;101729.19;5043247;28;20032;-68
2020/12/01 11:43:02;;;;;;;29.42;4.30;;;;;;;8.68;100.00;101731.19;5049955;28;20101;-68
2020/12/01 11:45:28;;;;;;;31.95;3.40;;;;;;;8.64;100.00;101732.47;5050829;28;20037;-68
2020/12/01 11:47:53;;;;;;;32.92;4.60;;;;;;;8.67;100.00;101735.69;5050333;28;20040;-68
2020/12/01 11:50:19;;;;;;;28.98;4.00;;;;;;;8.65;99.76;101739.50;5050529;28;20036;-67
2020/12/01 11:52:45;;;;;;;22.88;3.33;;;;;;;8.72;99.26;101735.31;5052006;28;20493;-67
2020/12/01 11:55:11;;;;;;;20.65;3.20;;;;;;;8.64;99.41;101735.13;5051989;28;20501;-67